Time;durP1;ratioP1;P1;durP2;ratioP2;P2;SDS_P1;SDS_P2;PMS_P1;PMS_P2;Temp;Humidity;BMP_temperature;BMP_pressure;BME280_temperature;BME280_humidity;BME280_pressure;Samples;Min_cycle;Max_cycle;Signal;HPM_P1;HPM_P2
2022/06/16 00:00:58;;;;;;;2.95;2.20;;;;;;;16.77;49.37;101217.31;5116003;27;20394;-48
2022/06/16 00:03:24;;;;;;;2.97;1.88;;;;;;;16.71;49.84;101220.91;5138535;27;20050;-46
2022/06/16 00:05:50;;;;;;;2.92;1.92;;;;;;;16.81;49.73;101224.81;5138103;27;20034;-47
2022/06/16 00:08:17;;;;;;;4.70;2.03;;;;;;;16.82;49.69;101226.50;5137532;27;20039;-46
2022/06/16 00:13:33;;;;;;;3.88;2.33;;;;;;;16.50;50.15;101184.09;5136746;27;20027;-47
2022/06/16 00:15:59;;;;;;;2.83;2.30;;;;;;;16.71;50.32;101229.03;5136335;27;20359;-48
2022/06/16 00:18:26;;;;;;;4.38;1.92;;;;;;;16.63;51.02;101233.66;5138122;27;20023;-48
2022/06/16 00:20:51;;;;;;;5.85;2.55;;;;;;;16.57;51.15;101229.09;5138211;27;20050;-48
2022/06/16 00:23:17;;;;;;;5.45;2.80;;;;;;;16.54;51.52;101229.53;5137930;27;20435;-47
2022/06/16 00:25:43;;;;;;;5.18;2.75;;;;;;;16.35;52.08;101235.84;5137763;27;20076;-50
2022/06/16 00:28:09;;;;;;;5.72;2.17;;;;;;;16.28;51.05;101218.78;5137932;27;20031;-50
2022/06/16 00:30:35;;;;;;;6.05;2.03;;;;;;;16.43;51.17;101238.31;5136496;27;20136;-49
2022/06/16 00:33:01;;;;;;;3.55;2.08;;;;;;;16.38;51.29;101241.69;5137370;27;20124;-48
2022/06/16 00:35:26;;;;;;;2.05;1.73;;;;;;;16.33;51.19;101227.94;5137474;27;20023;-49
2022/06/16 00:37:52;;;;;;;5.05;2.55;;;;;;;16.30;51.89;101224.81;5137502;27;20441;-47
2022/06/16 00:40:18;;;;;;;2.53;2.00;;;;;;;16.32;51.78;101237.09;5137835;27;20031;-46
2022/06/16 00:42:44;;;;;;;3.35;2.10;;;;;;;16.23;52.03;101227.53;5135755;27;20064;-47
2022/06/16 00:45:50;;;;;;;3.10;1.83;;;;;;;16.22;53.59;101234.00;5135599;27;20452;-50
2022/06/16 00:48:20;;;;;;;;;;;;;;;16.09;54.86;101223.19;5125011;27;20031;-47
2022/06/16 00:50:53;;;;;;;4.00;2.03;;;;;;;16.01;53.17;101229.66;5135946;27;19907;-48
2022/06/16 00:53:19;;;;;;;4.75;2.03;;;;;;;15.86;53.43;101210.91;5136850;27;20058;-47
2022/06/16 00:55:45;;;;;;;4.68;2.30;;;;;;;15.92;53.30;101218.22;5135189;27;20213;-47
2022/06/16 00:58:12;;;;;;;9.90;2.80;;;;;;;15.85;53.80;101226.34;5135034;27;20212;-48
2022/06/16 01:00:46;;;;;;;4.82;1.88;;;;;;;15.89;53.42;101232.19;5135145;27;20088;-46
2022/06/16 01:03:13;;;;;;;5.72;2.22;;;;;;;15.88;53.63;101235.94;5135551;27;20046;-47
2022/06/16 01:05:39;;;;;;;4.95;2.50;;;;;;;15.77;54.28;101218.44;5136692;27;20031;-48
2022/06/16 01:08:07;;;;;;;2.45;2.20;;;;;;;15.70;54.01;101225.72;5135909;27;20054;-46
2022/06/16 01:10:43;;;;;;;3.70;2.17;;;;;;;15.75;54.74;101241.34;5118037;27;20028;-48
2022/06/16 01:13:47;;;;;;;5.10;2.30;;;;;;;15.68;54.88;101242.16;5136333;27;20356;-49
2022/06/16 01:16:33;;;;;;;3.33;2.13;;;;;;;15.49;55.35;101230.28;5135520;27;20087;-47
2022/06/16 01:19:14;;;;;;;4.10;2.08;;;;;;;15.59;55.24;101245.28;5136082;27;20031;-48
2022/06/16 01:21:59;;;;;;;5.03;2.08;;;;;;;15.57;55.42;101244.66;5136065;27;20034;-48
2022/06/16 01:24:53;;;;;;;4.05;2.20;;;;;;;15.41;55.94;101216.94;5136379;27;20024;-47
2022/06/16 01:27:59;;;;;;;4.05;2.67;;;;;;;15.54;56.81;101247.78;5136499;27;20033;-47
2022/06/16 01:30:39;;;;;;;2.97;2.10;;;;;;;15.47;56.10;101251.31;5123753;27;20039;-46
2022/06/16 01:33:20;;;;;;;5.15;2.00;;;;;;;15.30;55.97;101239.19;5136228;27;20060;-47
2022/06/16 01:35:54;;;;;;;2.65;2.22;;;;;;;15.34;55.99;101255.88;5136142;27;20045;-49
2022/06/16 01:38:36;;;;;;;4.25;2.42;;;;;;;15.31;56.20;101257.13;5135964;27;20379;-47
2022/06/16 01:41:24;;;;;;;2.25;1.75;;;;;;;15.19;57.31;101248.78;5136227;27;20031;-47
2022/06/16 01:43:58;;;;;;;3.85;2.13;;;;;;;15.17;56.84;101252.72;5135153;27;20368;-50
2022/06/16 01:46:26;;;;;;;;;;;;;;;15.19;58.23;101264.16;5135373;27;20475;-47
2022/06/16 01:49:00;;;;;;;4.03;2.35;;;;;;;15.18;56.23;101267.94;5135980;27;20005;-47
2022/06/16 01:51:43;;;;;;;4.68;2.08;;;;;;;15.11;57.50;101270.59;5135908;27;20054;-46
2022/06/16 01:54:23;;;;;;;3.83;2.17;;;;;;;15.02;57.62;101269.13;5134903;27;20056;-46
2022/06/16 01:56:59;;;;;;;5.35;2.17;;;;;;;15.01;57.46;101278.28;5136545;27;20033;-47
2022/06/16 01:59:33;;;;;;;2.30;2.10;;;;;;;14.91;57.36;101267.81;5135738;27;20022;-47
2022/06/16 02:02:05;;;;;;;2.38;1.95;;;;;;;14.93;57.51;101289.25;5136765;27;20543;-47
2022/06/16 02:04:38;;;;;;;5.03;2.75;;;;;;;14.80;57.94;101274.66;5136662;27;20483;-50
2022/06/16 02:07:09;;;;;;;2.60;1.95;;;;;;;14.80;57.76;101288.19;5137637;27;20476;-53
2022/06/16 02:09:42;;;;;;;2.17;1.80;;;;;;;14.85;57.97;101291.09;5118233;27;20039;-48
2022/06/16 02:12:55;;;;;;;6.18;3.13;;;;;;;14.73;58.04;101284.63;5137852;27;20023;-49
2022/06/16 02:15:02;;;;;;;4.32;2.80;;;;;;;14.81;58.15;101303.38;5123378;27;20031;-48
2022/06/16 02:17:29;;;;;;;4.88;2.65;;;;;;;14.74;58.00;101302.50;5135340;27;20110;-45
2022/06/16 02:19:54;;;;;;;5.13;2.63;;;;;;;14.64;58.56;101299.34;5135217;27;20019;-48
2022/06/16 02:22:20;;;;;;;3.40;2.50;;;;;;;14.49;59.05;101288.63;5133745;27;20079;-47
2022/06/16 02:24:46;;;;;;;3.08;2.83;;;;;;;14.52;59.68;101310.69;5132753;27;20023;-49
2022/06/16 02:27:12;;;;;;;6.40;3.05;;;;;;;14.33;60.77;101319.47;5134751;27;20034;-46
2022/06/16 02:29:39;;;;;;;3.58;2.90;;;;;;;14.24;60.67;101318.78;5133274;27;20512;-48
2022/06/16 02:32:35;;;;;;;3.83;3.10;;;;;;;14.32;60.74;101318.66;5135054;27;20023;-48
2022/06/16 02:35:20;;;;;;;4.53;3.05;;;;;;;14.37;60.11;101317.22;5133904;27;20027;-46
2022/06/16 02:37:55;;;;;;;;;;;;;;;14.41;61.36;101321.19;5135318;27;20055;-46
2022/06/16 02:40:41;;;;;;;;;;;;;;;14.39;61.80;101321.38;5135320;27;20381;-49
2022/06/16 02:43:26;;;;;;;5.07;3.03;;;;;;;14.33;60.53;101322.19;5133412;27;19914;-48
2022/06/16 02:46:21;;;;;;;3.00;2.67;;;;;;;14.30;60.84;101318.03;5133598;27;20054;-47
2022/06/16 02:49:16;;;;;;;3.42;2.92;;;;;;;14.29;60.93;101326.31;5120190;27;20054;-49
2022/06/16 02:52:08;;;;;;;3.03;2.63;;;;;;;14.28;61.01;101321.94;5120643;27;20153;-47
2022/06/16 02:54:42;;;;;;;3.92;2.80;;;;;;;14.18;60.48;101325.00;5120134;27;20035;-47
2022/06/16 02:57:15;;;;;;;6.00;3.25;;;;;;;14.16;60.62;101332.47;5134664;27;20034;-47
2022/06/16 02:59:47;;;;;;;5.25;3.72;;;;;;;13.99;60.64;101322.97;5134175;27;20076;-48
2022/06/16 03:02:18;;;;;;;3.70;3.08;;;;;;;13.78;60.57;101294.97;5133237;27;20391;-47
2022/06/16 03:04:48;;;;;;;5.32;3.33;;;;;;;14.11;60.78;101343.88;5133223;28;20054;-48
2022/06/16 03:07:15;;;;;;;3.72;3.38;;;;;;;14.07;61.13;101347.97;5133225;28;20023;-47
2022/06/16 03:09:42;;;;;;;5.70;4.15;;;;;;;13.97;62.09;101339.38;5133978;27;20050;-48
2022/06/16 03:12:09;;;;;;;5.88;4.55;;;;;;;13.96;62.48;101347.66;5116123;28;20482;-47
2022/06/16 03:14:35;;;;;;;5.57;4.03;;;;;;;13.97;61.98;101347.47;5133026;28;20031;-48
2022/06/16 03:17:02;;;;;;;4.38;3.97;;;;;;;13.94;61.98;101342.44;5134136;27;20031;-47
2022/06/16 03:19:28;;;;;;;8.77;4.53;;;;;;;13.91;61.40;101332.88;5134121;27;20436;-48
2022/06/16 03:21:54;;;;;;;5.30;3.53;;;;;;;13.95;61.47;101333.34;5132678;28;20027;-46
2022/06/16 03:24:21;;;;;;;5.18;4.05;;;;;;;13.96;61.79;101348.50;5133978;27;20041;-48
2022/06/16 03:26:47;;;;;;;4.20;3.28;;;;;;;13.95;61.23;101333.34;5133920;27;20027;-49
2022/06/16 03:29:13;;;;;;;4.38;3.75;;;;;;;13.99;61.95;101348.13;5134114;27;20027;-48
2022/06/16 03:31:39;;;;;;;3.80;3.47;;;;;;;14.00;61.60;101351.63;5132659;28;20035;-47
2022/06/16 03:34:04;;;;;;;5.88;4.10;;;;;;;13.97;61.72;101346.63;5134055;27;20430;-48
2022/06/16 03:36:31;;;;;;;7.03;3.83;;;;;;;14.00;61.57;101352.47;5135343;27;20031;-47
2022/06/16 03:38:57;;;;;;;3.88;3.17;;;;;;;13.99;61.49;101341.88;5136795;27;20027;-47
2022/06/16 03:41:23;;;;;;;5.65;3.15;;;;;;;13.88;62.01;101337.84;5136984;27;20027;-48
2022/06/16 03:43:49;;;;;;;4.00;3.25;;;;;;;13.87;61.83;101353.22;5136808;27;20079;-48
2022/06/16 03:46:16;;;;;;;6.00;3.35;;;;;;;13.83;61.88;101354.59;5137996;27;20031;-47
2022/06/16 03:48:43;;;;;;;8.00;3.63;;;;;;;13.75;61.81;101333.97;5137899;27;20466;-46
2022/06/16 03:51:09;;;;;;;4.35;3.63;;;;;;;13.85;62.05;101359.81;5137005;27;20062;-48
2022/06/16 03:53:35;;;;;;;4.65;3.05;;;;;;;13.80;62.03;101368.50;5138236;27;20105;-47
2022/06/16 03:56:02;;;;;;;6.35;4.10;;;;;;;13.75;62.44;101369.06;5138035;27;20031;-46
2022/06/16 03:58:27;;;;;;;4.57;4.00;;;;;;;13.74;62.54;101370.13;5136834;27;20019;-48
2022/06/16 04:00:53;;;;;;;9.20;4.35;;;;;;;13.78;62.17;101367.00;5136955;27;20041;-48
2022/06/16 04:06:05;;;;;;;6.72;3.83;;;;;;;13.57;62.97;101343.56;5136677;27;20023;-46
2022/06/16 04:08:31;;;;;;;3.50;3.20;;;;;;;13.65;63.13;101373.97;5137621;27;20042;-47
2022/06/16 04:10:57;;;;;;;3.70;3.40;;;;;;;13.63;62.82;101370.63;5137644;27;20039;-47
2022/06/16 04:13:23;;;;;;;5.80;5.28;;;;;;;13.57;64.08;101375.94;5137774;27;20087;-47
2022/06/16 04:15:50;;;;;;;8.65;5.28;;;;;;;13.57;64.62;101382.16;5137542;27;20027;-46
2022/06/16 04:18:19;;;;;;;5.03;4.00;;;;;;;13.61;63.52;101386.16;5137506;27;20356;-48
2022/06/16 04:20:47;;;;;;;8.25;4.07;;;;;;;13.65;63.62;101389.31;5137364;27;20034;-47
2022/06/16 04:23:13;;;;;;;7.43;5.47;;;;;;;13.63;63.29;101384.13;5135917;27;20023;-49
2022/06/16 04:25:39;;;;;;;6.20;4.65;;;;;;;13.67;63.30;101380.00;5137779;27;20031;-49
2022/06/16 04:28:06;;;;;;;6.32;4.68;;;;;;;13.70;63.99;101384.16;5137235;27;20110;-48
2022/06/16 04:30:33;;;;;;;6.85;4.70;;;;;;;13.71;63.86;101389.38;5137708;27;20035;-46
2022/06/16 04:32:59;;;;;;;7.70;4.93;;;;;;;13.67;63.55;101376.44;5135917;27;20054;-49
2022/06/16 04:35:26;;;;;;;7.88;4.50;;;;;;;13.63;63.01;101362.53;5137513;27;20027;-47
2022/06/16 04:37:53;;;;;;;6.35;5.05;;;;;;;13.74;63.91;101388.16;5137001;27;20031;-46
2022/06/16 04:40:19;;;;;;;6.97;4.45;;;;;;;13.76;63.94;101394.19;5135612;27;20043;-51
2022/06/16 04:42:45;;;;;;;5.10;3.78;;;;;;;13.81;63.29;101396.34;5135812;27;20031;-48
2022/06/16 04:45:11;;;;;;;6.85;3.95;;;;;;;13.82;63.38;101409.66;5137389;27;20033;-48
2022/06/16 04:47:39;;;;;;;4.93;3.67;;;;;;;13.86;63.68;101410.09;5135475;27;20471;-47
2022/06/16 04:50:07;;;;;;;3.72;3.10;;;;;;;14.12;63.29;101401.41;5137309;27;20046;-47
2022/06/16 04:52:32;;;;;;;5.15;3.63;;;;;;;14.33;62.46;101397.84;5101365;27;20487;-48
2022/06/16 04:54:58;;;;;;;5.03;4.00;;;;;;;14.18;63.10;101397.09;5136949;27;20098;-49
2022/06/16 04:57:24;;;;;;;5.50;3.40;;;;;;;13.97;62.95;101379.88;5118221;27;20042;-51
2022/06/16 04:59:50;;;;;;;5.82;3.58;;;;;;;14.05;63.34;101404.03;5136512;27;20058;-46
2022/06/16 05:02:16;;;;;;;3.65;3.35;;;;;;;14.02;63.31;101398.19;5136716;27;20030;-47
2022/06/16 05:04:44;;;;;;;6.70;5.28;;;;;;;14.10;63.32;101403.47;5136775;27;20110;-47
2022/06/16 05:07:11;;;;;;;8.20;4.93;;;;;;;14.17;62.51;101398.97;5136348;27;20360;-48
2022/06/16 05:09:37;;;;;;;7.07;5.00;;;;;;;14.30;62.49;101400.94;5134844;27;20099;-47
2022/06/16 05:12:03;;;;;;;7.43;4.68;;;;;;;14.40;62.28;101392.50;5136411;27;20039;-48
2022/06/16 05:14:29;;;;;;;8.52;4.15;;;;;;;14.33;62.86;101395.97;5136707;27;20035;-47
2022/06/16 05:16:55;;;;;;;3.38;3.08;;;;;;;14.33;62.60;101400.56;5117701;27;20038;-51
2022/06/16 05:19:20;;;;;;;10.55;5.90;;;;;;;14.39;63.12;101410.56;5136115;27;20114;-46
2022/06/16 05:21:46;;;;;;;7.15;5.03;;;;;;;14.47;62.09;101402.34;5136502;27;20030;-47
2022/06/16 05:24:12;;;;;;;7.63;5.18;;;;;;;14.55;62.26;101412.16;5136336;27;20447;-50
2022/06/16 05:26:38;;;;;;;6.22;5.32;;;;;;;14.60;61.77;101411.59;5136510;27;20056;-51
2022/06/16 05:29:03;;;;;;;15.52;6.25;;;;;;;14.63;61.87;101408.50;5136457;27;20059;-48
2022/06/16 05:31:29;;;;;;;6.57;4.63;;;;;;;14.75;61.12;101415.03;5136581;27;20031;-48
2022/06/16 05:33:55;;;;;;;6.97;4.47;;;;;;;14.79;60.84;101412.78;5136006;27;20498;-50
2022/06/16 05:36:20;;;;;;;9.02;5.47;;;;;;;14.86;60.76;101421.78;5117754;27;20030;-51
2022/06/16 05:38:46;;;;;;;8.63;6.15;;;;;;;14.90;61.18;101423.03;5136066;27;20019;-46
2022/06/16 05:41:15;;;;;;;15.65;5.93;;;;;;;14.88;61.11;101407.00;5134756;27;20043;-47
2022/06/16 05:43:42;;;;;;;10.77;7.03;;;;;;;15.04;60.50;101429.34;5136092;27;20039;-48
2022/06/16 05:46:15;;;;;;;8.75;6.20;;;;;;;15.23;61.16;101453.00;5135959;27;20049;-49
2022/06/16 05:48:41;;;;;;;10.75;6.35;;;;;;;15.31;60.58;101451.97;5134713;27;20118;-45
2022/06/16 05:51:09;;;;;;;7.75;5.45;;;;;;;15.29;60.01;101444.06;5136570;27;20067;-47
2022/06/16 05:53:36;;;;;;;5.97;5.38;;;;;;;15.54;59.92;101475.19;5134724;27;20035;-46
2022/06/16 05:56:02;;;;;;;10.15;6.55;;;;;;;15.59;60.37;101476.25;5136947;27;20028;-46
2022/06/16 05:58:28;;;;;;;10.48;6.07;;;;;;;15.63;60.38;101474.00;5117076;27;20030;-48
2022/06/16 06:00:54;;;;;;;7.90;6.78;;;;;;;15.59;60.56;101470.84;5135249;27;20027;-47
2022/06/16 06:03:20;;;;;;;11.55;6.20;;;;;;;15.62;60.42;101492.13;5135818;27;20042;-48
2022/06/16 06:05:46;;;;;;;10.13;5.93;;;;;;;15.64;60.39;101489.22;5135214;27;20110;-47
2022/06/16 06:16:39;;;;;;;9.68;6.38;;;;;;;15.63;60.56;101488.34;5121801;27;20126;-47
2022/06/16 06:19:23;;;;;;;10.18;6.28;;;;;;;15.55;61.37;101480.41;5134690;27;20030;-49
2022/06/16 06:21:58;;;;;;;10.30;5.97;;;;;;;15.45;61.39;101466.41;5136370;27;20035;-48
2022/06/16 06:24:25;;;;;;;6.20;5.50;;;;;;;15.53;61.13;101465.41;5135299;27;20038;-49
2022/06/16 06:26:53;;;;;;;10.20;5.53;;;;;;;15.59;62.12;101478.97;5135477;27;20031;-49
2022/06/16 06:29:19;;;;;;;10.93;6.57;;;;;;;15.64;61.66;101479.19;5134497;27;20019;-51
2022/06/16 06:31:45;;;;;;;6.78;5.60;;;;;;;15.69;61.26;101459.63;5134033;27;20023;-48
2022/06/16 06:34:11;;;;;;;6.28;5.18;;;;;;;15.76;61.12;101462.41;5134626;27;20379;-49
2022/06/16 06:36:37;;;;;;;8.27;5.82;;;;;;;15.73;62.76;101460.06;5133883;27;20030;-48
2022/06/16 06:39:03;;;;;;;9.25;6.55;;;;;;;15.74;62.17;101448.22;5135046;27;20030;-47
2022/06/16 06:41:29;;;;;;;11.40;5.00;;;;;;;15.84;61.66;101454.06;5135461;27;20030;-49
2022/06/16 06:43:55;;;;;;;6.38;5.50;;;;;;;15.68;61.87;101437.13;5135113;27;20027;-49
2022/06/16 06:46:21;;;;;;;7.25;4.93;;;;;;;15.73;62.36;101450.09;5134098;27;20079;-47
2022/06/16 06:48:46;;;;;;;9.95;6.57;;;;;;;15.66;63.87;101439.22;5135190;27;20035;-48
2022/06/16 06:51:13;;;;;;;8.13;7.05;;;;;;;15.73;64.02;101451.94;5135078;27;20043;-49
2022/06/16 06:53:38;;;;;;;8.45;6.00;;;;;;;15.76;63.53;101465.94;5133849;27;20451;-49
2022/06/16 06:56:05;;;;;;;10.02;5.60;;;;;;;15.79;62.68;101467.41;5135110;27;20076;-49
2022/06/16 06:58:32;;;;;;;6.90;4.93;;;;;;;15.76;62.52;101452.41;5134869;27;20034;-51
2022/06/16 07:01:01;;;;;;;8.50;5.03;;;;;;;15.79;62.82;101460.13;5134937;27;20413;-47
2022/06/16 07:03:28;;;;;;;7.43;5.47;;;;;;;15.90;62.78;101468.69;5135096;27;20428;-49
2022/06/16 07:05:54;;;;;;;11.82;5.82;;;;;;;15.86;62.55;101454.69;5135443;27;20123;-49
2022/06/16 07:08:20;;;;;;;6.80;5.13;;;;;;;16.00;62.18;101463.72;5134517;27;20455;-50
2022/06/16 07:10:46;;;;;;;12.88;7.20;;;;;;;15.95;62.37;101456.19;5134663;27;20069;-47
2022/06/16 07:13:12;;;;;;;9.80;7.13;;;;;;;16.03;62.84;101456.00;5135223;27;20114;-49
2022/06/16 07:15:38;;;;;;;9.07;6.30;;;;;;;16.20;62.48;101475.44;5135186;27;20038;-48
2022/06/16 07:18:06;;;;;;;11.07;6.75;;;;;;;16.20;62.23;101453.75;5133378;28;20035;-51
2022/06/16 07:20:32;;;;;;;8.98;5.68;;;;;;;16.30;61.44;101447.09;5134272;27;20038;-48
2022/06/16 07:22:58;;;;;;;8.55;5.82;;;;;;;16.35;62.51;101448.13;5134467;27;20027;-47
2022/06/16 07:25:24;;;;;;;8.68;6.97;;;;;;;16.43;63.02;101439.78;5133111;28;20027;-49
2022/06/16 07:27:53;;;;;;;7.28;4.90;;;;;;;16.40;62.56;101434.78;5115959;28;20106;-47
2022/06/16 07:30:20;;;;;;;8.15;6.05;;;;;;;16.57;62.43;101453.34;5134009;27;20031;-51
2022/06/16 07:32:47;;;;;;;8.82;6.95;;;;;;;16.48;62.85;101424.78;5116715;28;20035;-51
2022/06/16 07:35:17;;;;;;;8.40;5.70;;;;;;;16.68;61.92;101441.88;5133241;28;20113;-48
2022/06/16 07:37:42;;;;;;;14.48;6.93;;;;;;;16.74;61.36;101449.16;5132848;28;20054;-48
2022/06/16 07:40:09;;;;;;;11.60;7.38;;;;;;;16.81;61.34;101460.84;5134551;27;20077;-46
2022/06/16 07:42:35;;;;;;;9.43;6.35;;;;;;;16.88;61.40;101454.59;5134496;27;20019;-50
2022/06/16 07:45:01;;;;;;;10.45;6.70;;;;;;;16.96;61.29;101459.81;5134530;27;20475;-46
2022/06/16 07:47:28;;;;;;;7.50;5.28;;;;;;;17.03;61.66;101460.59;5134825;27;20023;-49
2022/06/16 07:49:54;;;;;;;12.48;6.07;;;;;;;17.09;61.01;101467.94;5134617;27;20043;-48
2022/06/16 07:52:20;;;;;;;7.68;5.97;;;;;;;17.19;61.21;101470.19;5135041;27;20055;-48
2022/06/16 07:54:46;;;;;;;7.93;6.70;;;;;;;17.28;61.55;101468.09;5134564;27;20165;-47
2022/06/16 07:57:12;;;;;;;8.43;7.05;;;;;;;17.33;61.39;101460.16;5134276;27;20595;-49
2022/06/16 07:59:38;;;;;;;12.02;6.50;;;;;;;17.49;61.22;101456.91;5134001;27;20027;-47
2022/06/16 08:02:04;;;;;;;11.73;6.70;;;;;;;17.66;60.42;101459.16;5134622;27;20467;-48
2022/06/16 08:04:30;;;;;;;9.90;5.15;;;;;;;17.74;60.13;101446.16;5133927;27;20477;-48
2022/06/16 08:07:00;;;;;;;15.60;7.80;;;;;;;17.94;59.96;101443.38;5133729;27;20031;-48
2022/06/16 08:09:27;;;;;;;9.38;6.55;;;;;;;18.19;59.84;101445.28;5134054;27;20209;-49
2022/06/16 08:12:09;;;;;;;10.63;6.10;;;;;;;18.43;59.13;101443.63;5134433;27;20086;-48
2022/06/16 08:14:38;;;;;;;5.28;4.70;;;;;;;18.75;57.88;101455.28;5134721;27;20107;-48
2022/06/16 08:17:10;;;;;;;5.90;5.30;;;;;;;19.03;56.99;101440.38;5134769;27;20027;-48
2022/06/16 08:19:36;;;;;;;15.23;6.03;;;;;;;20.24;54.85;101458.75;5133871;27;20113;-49
2022/06/16 08:22:02;;;;;;;10.25;6.25;;;;;;;21.21;51.74;101452.03;5133563;27;20043;-49
2022/06/16 08:24:28;;;;;;;7.75;7.00;;;;;;;21.88;50.28;101439.72;5137246;27;20035;-47
2022/06/16 08:26:54;;;;;;;7.32;4.88;;;;;;;22.64;49.82;101440.22;5136244;27;20031;-48
2022/06/16 08:29:20;;;;;;;10.43;6.72;;;;;;;23.17;47.64;101430.56;5137301;27;20364;-44
2022/06/16 08:31:46;;;;;;;11.25;5.82;;;;;;;23.59;46.67;101434.66;5137394;27;20027;-48
2022/06/16 08:34:12;;;;;;;4.38;3.70;;;;;;;24.11;45.78;101439.59;5137497;27;20208;-49
2022/06/16 08:36:38;;;;;;;3.92;3.15;;;;;;;24.77;45.61;101429.41;5137015;27;20126;-47
2022/06/16 08:39:06;;;;;;;3.75;3.30;;;;;;;25.33;44.36;101431.63;5137104;27;20034;-49
2022/06/16 08:41:48;;;;;;;3.15;2.85;;;;;;;25.83;42.87;101422.66;5137115;27;20042;-46
2022/06/16 08:44:40;;;;;;;11.00;4.35;;;;;;;26.32;40.12;101413.09;5135857;27;20084;-48
2022/06/16 08:47:20;;;;;;;6.93;5.03;;;;;;;26.64;37.62;101412.81;5135972;27;20110;-48
2022/06/16 08:50:00;;;;;;;7.32;4.72;;;;;;;27.12;40.27;101411.56;5135359;27;20063;-48
2022/06/16 08:52:52;;;;;;;5.18;3.92;;;;;;;27.67;37.98;101411.56;5135457;27;20065;-47
2022/06/16 08:55:32;;;;;;;10.38;4.75;;;;;;;27.97;36.34;101411.41;5136816;27;20035;-48
2022/06/16 08:58:26;;;;;;;8.70;4.57;;;;;;;27.87;37.58;101392.09;5135479;27;20122;-48
2022/06/16 09:00:54;;;;;;;;;;;;;;;27.94;35.54;101405.63;5121668;27;20440;-49
2022/06/16 09:03:45;;;;;;;5.43;3.85;;;;;;;28.82;35.47;101402.88;5135223;27;19915;-49
2022/06/16 09:06:31;;;;;;;3.25;2.95;;;;;;;29.20;35.25;101414.06;5135695;27;20031;-47
2022/06/16 09:12:53;;;;;;;6.07;5.30;;;;;;;29.74;33.16;101418.34;5123842;27;20035;-49
2022/06/16 09:15:47;;;;;;;3.58;3.28;;;;;;;30.02;31.87;101407.38;5123781;27;20060;-48
2022/06/16 09:18:42;;;;;;;5.68;2.72;;;;;;;30.42;32.94;101414.19;5136497;27;20041;-47
2022/06/16 09:21:46;;;;;;;3.20;2.90;;;;;;;30.92;30.65;101407.97;5120839;27;20031;-48
2022/06/16 09:24:30;;;;;;;3.97;2.50;;;;;;;31.17;30.33;101397.50;5135555;27;20050;-49
2022/06/16 09:27:18;;;;;;;4.97;4.10;;;;;;;31.29;30.36;101391.41;5136184;27;20042;-48
2022/06/16 09:29:51;;;;;;;3.85;2.60;;;;;;;31.90;30.45;101397.50;5134837;27;20305;-50
2022/06/16 09:32:34;;;;;;;6.30;2.90;;;;;;;32.12;30.21;101393.94;5134599;27;20102;-48
2022/06/16 09:35:08;;;;;;;3.83;3.00;;;;;;;32.57;30.38;101393.84;5134528;27;20039;-47
2022/06/16 09:37:43;;;;;;;5.88;3.75;;;;;;;32.98;29.06;101387.94;5136304;27;20111;-48
2022/06/16 09:40:18;;;;;;;3.72;2.53;;;;;;;33.10;27.59;101367.84;5136280;27;20038;-47
2022/06/16 09:42:55;;;;;;;5.93;3.50;;;;;;;32.62;29.32;101379.03;5135538;27;20106;-48
2022/06/16 09:45:28;;;;;;;8.23;3.80;;;;;;;32.70;29.17;101381.81;5135000;27;20429;-47
2022/06/16 09:47:59;;;;;;;;;;;;;;;32.86;27.08;101384.19;5136476;27;20085;-49
2022/06/16 09:50:36;;;;;;;9.07;3.60;;;;;;;32.89;27.40;101387.09;5134277;27;19917;-50
2022/06/16 09:53:10;;;;;;;4.40;3.25;;;;;;;33.11;28.22;101382.59;5135312;27;20110;-48
2022/06/16 09:55:40;;;;;;;9.93;2.97;;;;;;;33.16;29.37;101382.47;5135893;27;20055;-49
2022/06/16 09:58:16;;;;;;;5.10;2.72;;;;;;;33.14;29.29;101382.78;5135394;27;20038;-50
2022/06/16 10:00:43;;;;;;;4.10;2.35;;;;;;;33.46;28.83;101388.22;5135597;27;20031;-47
2022/06/16 10:03:32;;;;;;;5.45;2.40;;;;;;;33.79;25.90;101388.59;5135614;27;20027;-49
2022/06/16 10:06:07;;;;;;;9.43;2.33;;;;;;;33.74;26.27;101395.13;5135516;27;20102;-48
2022/06/16 10:09:14;;;;;;;5.75;2.80;;;;;;;33.10;24.92;101415.19;5135178;27;20051;-52
2022/06/16 10:12:08;;;;;;;6.80;2.58;;;;;;;33.23;24.49;101427.34;5122905;27;20123;-50
2022/06/16 10:14:48;;;;;;;;;;;;;;;33.21;23.43;101424.06;5134602;27;20079;-48
2022/06/16 10:17:17;;;;;;;7.07;3.15;;;;;;;31.82;25.78;101422.13;5135500;27;19907;-50
2022/06/16 10:19:44;;;;;;;3.30;2.50;;;;;;;31.85;27.43;101431.78;5134991;27;20455;-47
2022/06/16 10:22:13;;;;;;;8.32;3.00;;;;;;;32.51;26.54;101431.28;5135235;27;20080;-50
2022/06/16 10:24:47;;;;;;;6.07;2.97;;;;;;;32.88;26.16;101434.75;5137153;27;20359;-48
2022/06/16 10:27:16;;;;;;;2.67;2.47;;;;;;;32.59;26.78;101423.00;5135630;27;20083;-47
2022/06/16 10:29:54;;;;;;;3.42;3.03;;;;;;;32.59;24.22;101414.66;5135431;27;20023;-47
2022/06/16 10:32:41;;;;;;;4.05;2.78;;;;;;;32.05;24.64;101415.78;5134039;27;20027;-49
2022/06/16 10:35:13;;;;;;;7.47;2.90;;;;;;;32.34;25.12;101429.22;5135151;27;20031;-48
2022/06/16 10:37:42;;;;;;;5.83;1.90;;;;;;;32.22;25.80;101427.84;5135474;27;20038;-52
2022/06/16 10:40:14;;;;;;;5.30;2.45;;;;;;;32.20;25.20;101427.31;5133604;27;20019;-52
2022/06/16 10:42:49;;;;;;;3.00;1.47;;;;;;;32.15;23.56;101416.34;5134966;27;20042;-52
2022/06/16 10:45:23;;;;;;;2.20;1.55;;;;;;;32.46;22.19;101412.75;5134448;27;20110;-52
2022/06/16 10:47:55;;;;;;;2.90;1.38;;;;;;;33.08;22.02;101424.97;5133751;27;20363;-52
2022/06/16 10:50:36;;;;;;;7.05;1.90;;;;;;;32.78;21.61;101433.91;5135257;27;20439;-48
2022/06/16 10:53:05;;;;;;;4.07;1.55;;;;;;;32.66;21.66;101428.09;5135094;27;20039;-50
2022/06/16 10:55:41;;;;;;;4.07;1.52;;;;;;;33.16;21.65;101415.88;5133831;27;20027;-49
2022/06/16 10:58:17;;;;;;;3.95;2.10;;;;;;;33.29;20.33;101423.25;5135593;27;20026;-48
2022/06/16 11:01:06;;;;;;;4.72;1.80;;;;;;;33.11;21.56;101419.59;5136849;27;20412;-52
2022/06/16 11:03:40;;;;;;;2.13;1.48;;;;;;;33.59;23.09;101420.66;5134911;27;20027;-51
2022/06/16 11:06:07;;;;;;;1.70;1.40;;;;;;;33.81;22.68;101416.13;5136550;27;20035;-49
2022/06/16 11:08:36;;;;;;;8.75;1.42;;;;;;;34.17;20.81;101415.75;5134738;27;20043;-48
2022/06/16 11:11:04;;;;;;;4.10;1.58;;;;;;;34.08;21.23;101414.94;5134588;27;20040;-49
2022/06/16 11:13:36;;;;;;;6.68;1.83;;;;;;;34.74;19.05;101423.00;5134801;27;20027;-48
2022/06/16 11:16:10;;;;;;;2.70;1.40;;;;;;;34.47;19.55;101419.47;5134728;27;20035;-48
2022/06/16 11:18:37;;;;;;;2.83;1.55;;;;;;;34.17;20.51;101423.31;5135253;27;20267;-50
2022/06/16 11:21:15;;;;;;;1.98;1.30;;;;;;;34.89;17.86;101418.81;5134572;27;20122;-52
2022/06/16 11:23:48;;;;;;;4.03;1.33;;;;;;;34.80;19.39;101421.66;5133552;28;20098;-49
2022/06/16 11:26:29;;;;;;;8.48;2.03;;;;;;;34.82;18.90;101436.06;5133390;28;20027;-49
2022/06/16 11:29:01;;;;;;;3.55;1.42;;;;;;;34.42;19.50;101421.63;5133227;28;20020;-50
2022/06/16 11:31:37;;;;;;;1.55;1.30;;;;;;;34.20;19.44;101426.25;5133163;28;20084;-50
2022/06/16 11:34:23;;;;;;;7.85;1.75;;;;;;;33.95;20.29;101425.09;5133067;28;20023;-48
2022/06/16 11:37:13;;;;;;;3.40;1.30;;;;;;;34.06;19.25;101443.13;5134826;27;20034;-49
2022/06/16 11:40:10;;;;;;;2.80;1.48;;;;;;;33.79;18.79;101435.94;5133136;28;20019;-52
2022/06/16 11:43:10;;;;;;;1.77;0.98;;;;;;;33.24;17.98;101445.69;5133515;28;20031;-48
2022/06/16 11:46:00;;;;;;;3.15;1.13;;;;;;;33.80;18.51;101433.97;5133282;28;20056;-52
2022/06/16 11:48:38;;;;;;;0.98;0.98;;;;;;;33.85;18.71;101428.25;5104152;28;20050;-49
2022/06/16 11:51:30;;;;;;;3.58;1.20;;;;;;;34.26;18.25;101441.66;5132802;28;20027;-51
2022/06/16 11:54:22;;;;;;;1.67;1.00;;;;;;;34.51;18.39;101445.53;5133104;28;20035;-49
2022/06/16 11:56:56;;;;;;;5.45;1.50;;;;;;;34.39;18.00;101436.22;5118844;28;20074;-51
2022/06/16 11:59:41;;;;;;;;;;;;;;;34.22;18.49;101453.81;5138409;27;20072;-50
2022/06/16 12:02:46;;;;;;;3.67;1.40;;;;;;;35.15;19.53;101449.38;5137031;27;19907;-52
2022/06/16 12:05:33;;;;;;;2.40;1.35;;;;;;;35.02;19.95;101456.03;5125717;27;20475;-51
2022/06/16 12:08:32;;;;;;;2.90;1.75;;;;;;;34.96;20.01;101451.81;5136406;27;20055;-50